createdAt,value
2022-10-05T00:04:29.851Z,19.80
2022-10-05T00:09:34.575Z,20.17
2022-10-05T00:14:39.433Z,20.17
2022-10-05T00:19:43.851Z,20.19
2022-10-05T00:24:48.343Z,20.15
2022-10-05T00:29:54.751Z,19.94
2022-10-05T00:34:58.294Z,20.09
2022-10-05T00:40:02.322Z,19.89
2022-10-05T00:45:09.783Z,19.76
2022-10-05T00:50:37.602Z,19.81
2022-10-05T00:55:49.716Z,19.98
2022-10-05T01:01:00.381Z,20.00
2022-10-05T01:06:15.771Z,20.03
2022-10-05T01:11:21.879Z,20.12
2022-10-05T01:16:30.765Z,20.10
2022-10-05T01:21:36.420Z,20.02
2022-10-05T01:26:51.302Z,19.96
2022-10-05T01:32:03.574Z,19.88
2022-10-05T01:37:15.843Z,19.91
2022-10-05T01:42:24.018Z,19.82
2022-10-05T01:47:34.112Z,19.94
2022-10-05T01:52:43.005Z,19.92
2022-10-05T01:57:55.379Z,19.87
2022-10-05T02:03:04.368Z,19.81
2022-10-05T02:08:11.827Z,19.71
2022-10-05T02:13:19.903Z,19.89
2022-10-05T02:18:29.296Z,19.79
2022-10-05T02:23:39.487Z,19.82
2022-10-05T02:28:45.902Z,19.92
2022-10-05T02:33:50.917Z,20.12
2022-10-05T02:39:02.125Z,19.85
2022-10-05T02:44:12.208Z,19.96
2022-10-05T02:49:23.851Z,20.02
2022-10-05T02:54:38.955Z,19.97
2022-10-05T02:59:45.414Z,19.97
2022-10-05T03:04:56.217Z,20.19
2022-10-05T03:10:02.878Z,20.02
2022-10-05T03:15:18.860Z,20.03
2022-10-05T03:20:29.539Z,20.02
2022-10-05T03:25:42.519Z,20.01
2022-10-05T03:30:50.927Z,19.93
2022-10-05T03:36:02.263Z,20.08
2022-10-05T03:41:13.622Z,20.05
2022-10-05T03:46:21.945Z,20.03
2022-10-05T03:51:32.715Z,20.04
2022-10-05T03:56:40.265Z,20.11
2022-10-05T04:01:48.846Z,20.21
2022-10-05T04:06:55.107Z,20.09
2022-10-05T04:12:04.341Z,20.14
2022-10-05T04:17:11.069Z,20.17
2022-10-05T04:22:19.657Z,20.03
2022-10-05T04:27:27.658Z,20.00
2022-10-05T04:32:37.634Z,19.88
2022-10-05T04:37:49.785Z,19.87
2022-10-05T04:43:02.020Z,19.87
2022-10-05T04:48:24.412Z,19.92
2022-10-05T04:53:33.093Z,19.81
2022-10-05T04:58:49.287Z,19.79
2022-10-05T05:04:03.598Z,19.95
2022-10-05T05:09:28.082Z,19.89
2022-10-05T05:14:47.985Z,19.92
2022-10-05T05:19:59.354Z,19.86
2022-10-05T05:25:18.170Z,19.80
2022-10-05T05:30:24.392Z,19.82
2022-10-05T05:35:40.826Z,19.68
2022-10-05T05:40:49.325Z,19.72
2022-10-05T05:45:58.739Z,19.67
2022-10-05T05:51:05.719Z,19.72
2022-10-05T05:56:12.728Z,19.84
2022-10-05T06:01:32.699Z,19.89
2022-10-05T06:06:41.317Z,19.75
2022-10-05T06:11:49.818Z,19.90
2022-10-05T06:16:57.421Z,19.85
2022-10-05T06:22:04.918Z,19.66
2022-10-05T06:27:25.069Z,19.88
2022-10-05T06:32:31.565Z,19.87
2022-10-05T06:37:58.117Z,19.88
2022-10-05T06:43:14.104Z,19.94
2022-10-05T06:48:45.560Z,19.87
2022-10-05T06:54:17.473Z,20.21
2022-10-05T06:59:26.351Z,20.44
2022-10-05T07:04:44.014Z,20.65
2022-10-05T07:09:55.698Z,21.01
2022-10-05T07:15:20.928Z,20.87
2022-10-05T07:20:30.363Z,20.87
2022-10-05T07:25:38.283Z,21.03
2022-10-05T07:30:51.264Z,21.20
2022-10-05T07:36:18.077Z,21.32
2022-10-05T07:41:27.130Z,21.47
2022-10-05T07:46:43.625Z,21.51
2022-10-05T07:51:49.487Z,21.56
2022-10-05T07:56:56.810Z,21.77
2022-10-05T08:02:07.128Z,21.54
2022-10-05T08:07:14.402Z,21.79
2022-10-05T08:12:24.799Z,21.54
2022-10-05T08:17:40.596Z,21.78
2022-10-05T08:22:49.123Z,21.88
2022-10-05T08:27:56.903Z,22.52
2022-10-05T08:33:07.802Z,23.14
2022-10-05T08:38:13.403Z,23.10
2022-10-05T08:43:32.917Z,23.56
2022-10-05T08:49:02.053Z,23.78
2022-10-05T08:54:26.056Z,24.00
2022-10-05T08:59:47.357Z,24.11
2022-10-05T09:05:10.552Z,23.34
2022-10-05T09:10:47.913Z,23.86
2022-10-05T09:16:41.903Z,23.51
2022-10-05T09:21:56.499Z,23.44
2022-10-05T09:27:04.775Z,23.54
2022-10-05T09:32:27.899Z,23.25
2022-10-05T09:37:52.481Z,23.18
2022-10-05T09:43:05.648Z,22.98
2022-10-05T09:48:42.538Z,23.36
2022-10-05T10:03:05.663Z,23.53
2022-10-05T10:08:35.802Z,23.31
2022-10-05T10:14:09.531Z,23.03
2022-10-05T10:20:12.201Z,23.34
2022-10-05T10:26:20.339Z,23.01
2022-10-05T10:31:50.951Z,23.45
2022-10-05T10:37:34.482Z,23.18
2022-10-05T10:43:52.062Z,23.03
2022-10-05T11:11:13.056Z,23.70
2022-10-05T11:16:44.988Z,23.69
2022-10-05T11:22:11.017Z,23.55
2022-10-05T11:27:41.521Z,23.83
2022-10-05T11:33:06.222Z,23.73
2022-10-05T11:38:40.854Z,23.91
2022-10-05T11:44:19.179Z,24.26
2022-10-05T11:49:41.295Z,24.08
2022-10-05T11:55:10.478Z,23.65
2022-10-05T12:00:32.745Z,24.12
2022-10-05T12:06:00.289Z,24.15
2022-10-05T12:11:31.102Z,23.90
2022-10-05T12:16:48.225Z,24.07
2022-10-05T12:22:04.183Z,23.66
2022-10-05T12:33:09.368Z,24.52
2022-10-05T12:38:25.171Z,24.80
2022-10-05T12:43:35.466Z,24.77
2022-10-05T12:49:02.528Z,25.27
2022-10-05T12:54:15.992Z,25.31
2022-10-05T12:59:26.619Z,24.67
2022-10-05T13:04:41.538Z,25.45
2022-10-05T13:09:51.324Z,26.08
2022-10-05T13:15:03.096Z,25.54
2022-10-05T13:20:15.562Z,26.59
2022-10-05T13:25:23.521Z,26.45
2022-10-05T13:30:31.639Z,26.19
2022-10-05T13:35:45.818Z,26.15
2022-10-05T13:40:55.065Z,26.31
2022-10-05T13:46:04.779Z,26.00
2022-10-05T13:51:13.467Z,26.65
2022-10-05T13:56:22.696Z,26.67
2022-10-05T14:01:35.484Z,27.40
2022-10-05T14:06:40.319Z,27.26
2022-10-05T14:11:49.835Z,27.22
2022-10-05T14:16:54.937Z,27.17
2022-10-05T14:22:02.565Z,27.51
2022-10-05T14:27:22.748Z,27.72
2022-10-05T14:32:28.060Z,27.46
2022-10-05T14:37:44.537Z,27.76
2022-10-05T14:42:47.927Z,27.64
2022-10-05T14:47:52.817Z,27.83
2022-10-05T14:53:16.614Z,27.29
2022-10-05T14:58:30.775Z,27.51
2022-10-05T15:03:42.811Z,27.69
2022-10-05T15:09:16.977Z,27.61
2022-10-05T15:14:25.281Z,27.21
2022-10-05T15:19:36.157Z,26.84
2022-10-05T15:24:45.415Z,26.86
2022-10-05T15:30:01.993Z,26.64
2022-10-05T15:35:36.804Z,26.70
2022-10-05T15:40:45.954Z,26.59
2022-10-05T15:45:54.572Z,26.91
2022-10-05T15:51:02.363Z,26.47
2022-10-05T15:56:10.582Z,26.41
2022-10-05T16:01:17.524Z,26.17
2022-10-05T16:06:56.921Z,26.01
2022-10-05T16:12:11.017Z,26.24
2022-10-05T16:17:25.256Z,26.13
2022-10-05T16:22:39.975Z,25.57
2022-10-05T16:28:05.334Z,25.96
2022-10-05T16:33:15.792Z,25.72
2022-10-05T16:38:27.761Z,25.47
2022-10-05T16:43:44.867Z,25.28
2022-10-05T16:48:55.227Z,24.99
2022-10-05T16:54:08.290Z,24.68
2022-10-05T16:59:39.496Z,24.44
2022-10-05T17:04:47.965Z,24.39
2022-10-05T17:10:26.023Z,24.04
2022-10-05T17:15:37.163Z,23.75
2022-10-05T17:20:51.618Z,23.42
2022-10-05T17:25:57.136Z,23.38
2022-10-05T17:31:15.098Z,23.58
2022-10-05T17:36:19.679Z,23.41
2022-10-05T17:41:25.593Z,23.65
2022-10-05T17:46:42.365Z,23.41
2022-10-05T17:52:22.206Z,23.58
2022-10-05T17:57:27.804Z,23.53
2022-10-05T18:02:43.908Z,23.83
2022-10-05T18:07:48.594Z,23.68
2022-10-05T18:13:15.122Z,23.89
2022-10-05T18:18:54.589Z,24.08
2022-10-05T18:24:18.570Z,24.21
2022-10-05T18:29:46.162Z,24.03
2022-10-05T18:34:58.643Z,24.01
2022-10-05T18:40:22.519Z,23.71
2022-10-05T18:45:32.788Z,23.62
2022-10-05T18:50:42.087Z,24.00
2022-10-05T18:55:54.401Z,24.38
2022-10-05T19:01:39.077Z,24.10
2022-10-05T19:06:50.111Z,24.51
2022-10-05T19:11:59.727Z,24.57
2022-10-05T19:17:22.349Z,24.79
2022-10-05T19:22:37.021Z,24.59
2022-10-05T19:27:53.108Z,24.77
2022-10-05T19:33:18.279Z,24.90
2022-10-05T19:38:27.647Z,24.70
2022-10-05T19:43:44.270Z,24.54
2022-10-05T19:48:50.111Z,24.18
2022-10-05T19:53:56.007Z,24.24
2022-10-05T19:59:13.162Z,23.41
2022-10-05T20:04:32.930Z,24.58
2022-10-05T20:09:51.919Z,24.22
2022-10-05T20:15:35.834Z,24.45
2022-10-05T20:20:44.494Z,24.76
2022-10-05T20:26:04.703Z,23.50
2022-10-05T20:31:10.042Z,25.01
2022-10-05T20:36:13.751Z,24.37
2022-10-05T20:41:17.357Z,24.25
2022-10-05T20:46:23.058Z,24.90
2022-10-05T20:51:28.816Z,24.47
2022-10-05T20:56:32.324Z,25.04
2022-10-05T21:01:37.191Z,24.91
2022-10-05T21:06:41.043Z,23.71
2022-10-05T21:11:45.282Z,24.81
2022-10-05T21:16:50.253Z,24.65
2022-10-05T21:21:54.352Z,24.85
2022-10-05T21:26:57.961Z,24.43
2022-10-05T21:32:02.985Z,24.38
2022-10-05T21:37:06.506Z,24.35
2022-10-05T21:42:09.913Z,24.16
2022-10-05T21:47:14.926Z,24.25
2022-10-05T21:52:18.639Z,24.48
2022-10-05T21:57:22.274Z,23.92
2022-10-05T22:02:27.227Z,23.98
2022-10-05T22:07:30.629Z,24.52
2022-10-05T22:12:34.650Z,23.98
2022-10-05T22:17:40.603Z,23.90
2022-10-05T22:22:44.193Z,24.50
2022-10-05T22:27:48.230Z,24.14
2022-10-05T22:32:53.299Z,24.05
2022-10-05T22:37:57.015Z,24.24
2022-10-05T22:43:00.555Z,24.11
2022-10-05T22:48:06.034Z,23.96
2022-10-05T22:53:09.597Z,24.13
2022-10-05T22:58:13.126Z,24.36
2022-10-05T23:03:18.206Z,23.93
2022-10-05T23:08:21.676Z,24.10
2022-10-05T23:13:25.233Z,24.12
2022-10-05T23:18:31.167Z,24.09
2022-10-05T23:23:39.803Z,24.44
2022-10-05T23:28:47.136Z,24.31
2022-10-05T23:33:52.682Z,24.32
2022-10-05T23:39:08.921Z,24.46
2022-10-05T23:44:12.635Z,24.05
2022-10-05T23:49:18.032Z,23.97
2022-10-05T23:54:21.779Z,24.25
2022-10-05T23:59:25.642Z,24.03
